Time;durP1;ratioP1;P1;durP2;ratioP2;P2;SDS_P1;SDS_P2;PMS_P1;PMS_P2;Temp;Humidity;BMP_temperature;BMP_pressure;BME280_temperature;BME280_humidity;BME280_pressure;Samples;Min_cycle;Max_cycle;Signal;HPM_P1;HPM_P2
2023/04/06 00:00:03;;;;;;;7.87;6.03;;;2.10;99.90;;;;;;5094572;28;20294;-56
2023/04/06 00:02:30;;;;;;;8.97;6.03;;;2.10;99.90;;;;;;5095004;28;20204;-56
2023/04/06 00:04:57;;;;;;;9.53;6.63;;;2.10;99.90;;;;;;5094904;28;20226;-56
2023/04/06 00:07:24;;;;;;;8.20;6.33;;;2.10;99.90;;;;;;5094354;28;20217;-56
2023/04/06 00:09:52;;;;;;;10.03;6.63;;;2.10;99.90;;;;;;5094743;28;20269;-56
2023/04/06 00:12:19;;;;;;;7.57;6.17;;;2.10;99.90;;;;;;5094781;28;20208;-56
2023/04/06 00:14:45;;;;;;;7.33;6.00;;;2.10;99.90;;;;;;5094677;28;20537;-57
2023/04/06 00:17:12;;;;;;;8.50;6.17;;;2.20;99.90;;;;;;5094188;28;20231;-57
2023/04/06 00:19:39;;;;;;;8.10;5.80;;;2.10;99.90;;;;;;5094594;28;20208;-57
2023/04/06 00:22:05;;;;;;;8.00;5.80;;;2.10;99.90;;;;;;5094503;28;20215;-57
2023/04/06 00:24:32;;;;;;;6.70;5.40;;;2.10;99.90;;;;;;5094349;28;20694;-57
2023/04/06 00:27:01;;;;;;;7.70;5.60;;;2.10;99.90;;;;;;5093987;28;20243;-56
2023/04/06 00:29:27;;;;;;;8.50;5.87;;;2.10;99.90;;;;;;5094389;28;20234;-56
2023/04/06 00:31:54;;;;;;;9.33;5.63;;;2.10;99.90;;;;;;5094248;28;20207;-57
2023/04/06 00:34:21;;;;;;;6.63;5.30;;;2.20;99.90;;;;;;5094544;28;20232;-57
2023/04/06 00:36:48;;;;;;;8.80;5.90;;;2.20;99.90;;;;;;5094055;28;20337;-57
2023/04/06 00:39:14;;;;;;;9.07;5.93;;;2.20;99.90;;;;;;5094337;28;20291;-57
2023/04/06 00:41:47;;;;;;;7.00;5.60;;;2.30;99.90;;;;;;5093250;28;20227;-57
2023/04/06 00:44:15;;;;;;;6.47;5.40;;;2.20;99.90;;;;;;5093988;28;20695;-57
2023/04/06 00:46:42;;;;;;;11.10;6.57;;;2.20;99.90;;;;;;5093696;28;20204;-57
2023/04/06 00:49:08;;;;;;;7.73;5.47;;;2.20;99.90;;;;;;5094045;28;20212;-57
2023/04/06 00:51:35;;;;;;;7.57;5.50;;;2.20;99.90;;;;;;5093863;28;20200;-56
2023/04/06 00:54:02;;;;;;;7.13;5.23;;;2.20;99.90;;;;;;5093905;28;20215;-57
2023/04/06 00:56:29;;;;;;;8.77;5.80;;;2.10;99.90;;;;;;5093561;28;20208;-56
2023/04/06 00:58:56;;;;;;;9.63;5.90;;;2.10;99.90;;;;;;5093538;28;20273;-57
2023/04/06 01:01:24;;;;;;;7.23;5.60;;;2.10;99.90;;;;;;5093936;28;20204;-58
2023/04/06 01:03:52;;;;;;;8.13;5.60;;;2.10;99.90;;;;;;5093818;28;20211;-57
2023/04/06 01:06:18;;;;;;;7.20;5.60;;;2.10;99.90;;;;;;5093659;28;20208;-56
2023/04/06 01:08:45;;;;;;;7.23;5.50;;;2.00;99.90;;;;;;5093111;28;20220;-56
2023/04/06 01:11:12;;;;;;;6.90;5.23;;;2.10;99.90;;;;;;5093680;28;20211;-57
2023/04/06 01:13:38;;;;;;;7.83;5.70;;;2.00;99.90;;;;;;5093662;28;20246;-57
2023/04/06 01:16:06;;;;;;;7.77;5.77;;;2.00;99.90;;;;;;5093472;28;20211;-56
2023/04/06 01:18:34;;;;;;;6.90;5.67;;;2.00;99.90;;;;;;5093007;28;20220;-56
2023/04/06 01:21:01;;;;;;;6.17;4.90;;;1.90;99.90;;;;;;5093428;28;20215;-57
2023/04/06 01:23:29;;;;;;;8.70;5.53;;;1.80;99.90;;;;;;5093623;28;20213;-57
2023/04/06 01:25:56;;;;;;;6.87;6.03;;;1.80;99.90;;;;;;5093643;28;20578;-57
2023/04/06 01:28:23;;;;;;;6.73;5.67;;;1.80;99.90;;;;;;5093529;28;20232;-56
2023/04/06 01:30:50;;;;;;;10.57;5.40;;;1.80;99.90;;;;;;5093343;28;20211;-56
2023/04/06 01:33:17;;;;;;;7.53;5.33;;;1.80;99.90;;;;;;5093352;28;20261;-56
2023/04/06 01:35:44;;;;;;;7.37;5.57;;;1.70;99.90;;;;;;5093075;28;20282;-57
2023/04/06 01:38:10;;;;;;;8.00;5.80;;;1.70;99.90;;;;;;5092722;28;20277;-56
2023/04/06 01:40:38;;;;;;;6.60;5.07;;;1.70;99.90;;;;;;5093382;28;20208;-56
2023/04/06 01:43:06;;;;;;;8.47;5.80;;;1.70;99.90;;;;;;5093271;28;20219;-56
2023/04/06 01:45:33;;;;;;;6.73;5.27;;;1.70;99.90;;;;;;5092865;28;20230;-56
2023/04/06 01:47:59;;;;;;;7.43;5.60;;;1.60;99.90;;;;;;5092334;28;20235;-56
2023/04/06 01:50:26;;;;;;;10.43;5.73;;;1.60;99.90;;;;;;5092733;28;20559;-56
2023/04/06 01:52:53;;;;;;;10.80;5.77;;;1.60;99.90;;;;;;5092648;28;20299;-56
2023/04/06 01:55:20;;;;;;;7.33;5.50;;;1.50;99.90;;;;;;5092776;28;20215;-56
2023/04/06 01:57:48;;;;;;;9.13;5.83;;;1.50;99.90;;;;;;5092664;28;20228;-56
2023/04/06 02:00:16;;;;;;;9.30;5.50;;;1.50;99.90;;;;;;5092921;28;20208;-56
2023/04/06 02:02:42;;;;;;;7.40;5.40;;;1.40;99.90;;;;;;5092927;28;20208;-56
2023/04/06 02:05:10;;;;;;;6.23;5.60;;;1.30;99.90;;;;;;5092923;28;20196;-56
2023/04/06 02:07:36;;;;;;;6.60;5.83;;;1.30;99.90;;;;;;5092153;28;20222;-56
2023/04/06 02:10:04;;;;;;;9.83;5.53;;;1.30;99.90;;;;;;5092460;28;20518;-56
2023/04/06 02:12:31;;;;;;;7.00;5.70;;;1.40;99.90;;;;;;5092317;28;20207;-56
2023/04/06 02:14:59;;;;;;;7.13;5.17;;;1.50;99.90;;;;;;5092584;28;20208;-56
2023/04/06 02:17:26;;;;;;;6.77;5.73;;;1.60;99.90;;;;;;5092196;28;20593;-56
2023/04/06 02:19:52;;;;;;;12.07;6.67;;;1.60;99.90;;;;;;5092546;28;20324;-56
2023/04/06 02:22:19;;;;;;;7.80;5.80;;;1.70;99.90;;;;;;5092287;28;20208;-56
2023/04/06 02:24:46;;;;;;;7.37;5.87;;;1.70;99.90;;;;;;5092454;28;20204;-56
2023/04/06 02:27:14;;;;;;;7.93;5.63;;;1.70;99.90;;;;;;5091819;28;20331;-56
2023/04/06 02:29:41;;;;;;;6.10;5.33;;;1.60;99.90;;;;;;5092189;28;20204;-56
2023/04/06 02:32:09;;;;;;;7.60;6.07;;;1.60;99.90;;;;;;5092493;28;20207;-56
2023/04/06 02:34:36;;;;;;;7.87;6.07;;;1.50;99.90;;;;;;5092474;28;20211;-55
2023/04/06 02:37:02;;;;;;;7.53;5.67;;;1.60;99.90;;;;;;5092061;28;20228;-55
2023/04/06 02:39:29;;;;;;;6.27;5.60;;;1.50;99.90;;;;;;5092630;28;20251;-55
2023/04/06 02:41:56;;;;;;;9.40;5.63;;;1.50;99.90;;;;;;5092367;28;20204;-56
2023/04/06 02:44:23;;;;;;;6.30;5.47;;;1.40;99.90;;;;;;5092350;28;20257;-55
2023/04/06 02:46:50;;;;;;;9.27;6.37;;;1.40;99.90;;;;;;5092068;28;20228;-55
2023/04/06 02:49:18;;;;;;;8.37;6.03;;;1.40;99.90;;;;;;5092226;28;20283;-55
2023/04/06 02:51:45;;;;;;;10.17;6.50;;;1.40;99.90;;;;;;5092112;28;20204;-55
2023/04/06 02:54:12;;;;;;;13.87;7.77;;;1.30;99.90;;;;;;5092364;28;20205;-55
2023/04/06 02:56:38;;;;;;;10.57;6.70;;;1.30;99.90;;;;;;5091770;28;20211;-55
2023/04/06 02:59:05;;;;;;;12.27;8.03;;;1.30;99.90;;;;;;5092263;28;20224;-55
2023/04/06 03:01:32;;;;;;;10.30;6.77;;;1.40;99.90;;;;;;5092177;28;20209;-55
2023/04/06 03:03:59;;;;;;;9.47;6.80;;;1.40;99.90;;;;;;5093332;28;20219;-55
2023/04/06 03:06:27;;;;;;;7.67;6.23;;;1.40;99.90;;;;;;5095857;28;20200;-55
2023/04/06 03:08:54;;;;;;;8.50;6.33;;;1.30;99.90;;;;;;5096075;28;20200;-55
2023/04/06 03:11:20;;;;;;;7.27;5.63;;;1.20;99.90;;;;;;5095680;28;20227;-55
2023/04/06 03:13:47;;;;;;;10.50;6.07;;;1.20;99.90;;;;;;5095894;28;20211;-55
2023/04/06 03:16:14;;;;;;;8.13;6.37;;;1.10;99.90;;;;;;5095519;28;20666;-55
2023/04/06 03:18:41;;;;;;;7.03;6.20;;;1.10;99.90;;;;;;5095582;28;20232;-55
2023/04/06 03:21:07;;;;;;;8.50;6.00;;;1.20;99.90;;;;;;5095943;28;20208;-55
2023/04/06 03:23:35;;;;;;;6.10;5.43;;;1.20;99.90;;;;;;5095982;28;20204;-55
2023/04/06 03:26:02;;;;;;;8.80;6.13;;;1.20;99.90;;;;;;5095571;28;20200;-55
2023/04/06 03:28:29;;;;;;;8.20;6.40;;;1.20;99.90;;;;;;5095215;28;20238;-55
2023/04/06 03:30:56;;;;;;;8.90;6.50;;;1.10;99.90;;;;;;5095394;28;20656;-55
2023/04/06 03:33:22;;;;;;;11.40;7.97;;;1.10;99.90;;;;;;5095443;28;20204;-56
2023/04/06 03:35:49;;;;;;;10.33;7.50;;;1.00;99.90;;;;;;5095682;28;20220;-55
2023/04/06 03:38:16;;;;;;;10.30;7.27;;;1.00;99.90;;;;;;5094897;28;20228;-55
2023/04/06 03:40:45;;;;;;;8.90;6.90;;;1.00;99.90;;;;;;5095161;28;20653;-55
2023/04/06 03:43:12;;;;;;;9.27;6.73;;;0.90;99.90;;;;;;5096153;28;20559;-55
2023/04/06 03:45:38;;;;;;;8.80;6.70;;;0.90;99.90;;;;;;5095330;28;20204;-56
2023/04/06 03:48:06;;;;;;;10.40;6.73;;;0.90;99.90;;;;;;5094741;28;20590;-56
2023/04/06 03:50:33;;;;;;;10.00;7.33;;;0.90;99.90;;;;;;5095507;28;20200;-55
2023/04/06 03:53:01;;;;;;;11.90;6.53;;;0.80;99.90;;;;;;5095107;28;20209;-56
2023/04/06 03:55:28;;;;;;;11.10;6.80;;;0.70;99.90;;;;;;5095394;28;20666;-56
2023/04/06 03:57:56;;;;;;;9.57;6.47;;;0.60;99.90;;;;;;5094723;28;20221;-56
2023/04/06 04:00:23;;;;;;;9.60;6.83;;;0.50;99.90;;;;;;5094911;28;20582;-56
2023/04/06 04:02:50;;;;;;;10.67;6.53;;;0.60;99.90;;;;;;5095026;28;20200;-55
2023/04/06 04:05:17;;;;;;;10.30;6.90;;;0.60;99.90;;;;;;5095171;28;20200;-56
2023/04/06 04:07:44;;;;;;;9.47;6.67;;;0.60;99.90;;;;;;5094859;28;20224;-56
2023/04/06 04:10:10;;;;;;;9.50;6.67;;;0.60;99.90;;;;;;5095249;28;20200;-56
2023/04/06 04:12:37;;;;;;;8.83;6.57;;;0.60;99.90;;;;;;5094989;28;20221;-55
2023/04/06 04:15:06;;;;;;;9.17;6.30;;;0.50;99.90;;;;;;5094299;28;20675;-56
2023/04/06 04:17:33;;;;;;;9.67;6.30;;;0.40;99.90;;;;;;5094288;28;20235;-56
2023/04/06 04:20:00;;;;;;;8.60;6.47;;;0.50;99.90;;;;;;5094971;28;20241;-56
2023/04/06 04:22:27;;;;;;;7.47;6.20;;;0.50;99.90;;;;;;5094735;28;20208;-56
2023/04/06 04:24:54;;;;;;;8.83;6.83;;;0.50;99.90;;;;;;5094746;28;20721;-56
2023/04/06 04:27:21;;;;;;;8.83;6.57;;;0.50;99.90;;;;;;5094602;28;20612;-56
2023/04/06 04:29:48;;;;;;;8.83;6.23;;;0.50;99.90;;;;;;5094540;28;20204;-56
2023/04/06 04:32:16;;;;;;;7.67;5.80;;;0.50;99.90;;;;;;5094418;28;20200;-56
2023/04/06 04:34:43;;;;;;;7.20;5.87;;;0.50;99.90;;;;;;5094754;28;20196;-56
2023/04/06 04:37:09;;;;;;;7.90;6.47;;;0.50;99.90;;;;;;5094461;28;20238;-56
2023/04/06 04:39:36;;;;;;;8.30;6.50;;;0.50;99.90;;;;;;5094598;28;20224;-55
2023/04/06 04:42:03;;;;;;;8.43;6.00;;;0.50;99.90;;;;;;5094875;28;20204;-55
2023/04/06 04:44:30;;;;;;;11.07;6.33;;;0.40;99.90;;;;;;5094820;28;20208;-57
2023/04/06 04:46:57;;;;;;;7.03;6.27;;;0.30;99.90;;;;;;5093709;28;20700;-55
2023/04/06 04:49:25;;;;;;;8.57;6.07;;;0.30;99.90;;;;;;5093897;28;20205;-56
2023/04/06 04:51:52;;;;;;;8.50;6.53;;;0.30;99.90;;;;;;5094173;28;20208;-55
2023/04/06 04:54:19;;;;;;;8.23;6.30;;;0.40;99.90;;;;;;5093921;28;20210;-56
2023/04/06 04:56:46;;;;;;;8.17;5.80;;;0.50;99.90;;;;;;5093621;28;20260;-56
2023/04/06 04:59:13;;;;;;;10.63;6.33;;;0.50;99.90;;;;;;5093746;28;20699;-56
2023/04/06 05:01:39;;;;;;;9.23;5.97;;;0.60;99.90;;;;;;5093868;28;20213;-55
2023/04/06 05:04:06;;;;;;;11.17;6.17;;;0.60;99.90;;;;;;5093430;28;20295;-55
2023/04/06 05:06:34;;;;;;;8.87;6.53;;;0.70;99.90;;;;;;5093388;28;20200;-59
2023/04/06 05:09:01;;;;;;;9.70;7.40;;;0.80;99.90;;;;;;5093511;28;20255;-56
2023/04/06 05:11:28;;;;;;;9.90;6.67;;;0.80;99.90;;;;;;5093679;28;20207;-56
2023/04/06 05:13:54;;;;;;;11.00;6.93;;;0.90;99.90;;;;;;5093309;28;20212;-56
2023/04/06 05:16:21;;;;;;;10.00;6.83;;;0.90;99.90;;;;;;5093592;28;20682;-56
2023/04/06 05:18:49;;;;;;;11.80;6.10;;;0.90;99.90;;;;;;5093271;28;20228;-56
2023/04/06 05:21:15;;;;;;;8.63;6.63;;;0.90;99.90;;;;;;5093611;28;20215;-57
2023/04/06 05:23:43;;;;;;;9.97;6.27;;;1.00;99.90;;;;;;5093501;28;20209;-58
2023/04/06 05:26:10;;;;;;;10.47;6.67;;;1.10;99.90;;;;;;5092973;28;20211;-55
2023/04/06 05:28:37;;;;;;;9.20;7.50;;;1.20;99.90;;;;;;5092729;28;20231;-56
2023/04/06 05:31:04;;;;;;;10.17;6.80;;;1.30;99.90;;;;;;5093231;28;20211;-55
2023/04/06 05:33:31;;;;;;;7.37;6.40;;;1.30;99.90;;;;;;5093174;28;20200;-56
2023/04/06 05:36:00;;;;;;;9.10;6.43;;;1.40;99.90;;;;;;5093539;28;20208;-56
2023/04/06 05:38:27;;;;;;;8.87;6.87;;;1.40;99.90;;;;;;5092484;28;20232;-56
2023/04/06 05:40:55;;;;;;;8.03;6.20;;;1.50;99.90;;;;;;5092864;28;20212;-55
2023/04/06 05:43:22;;;;;;;10.17;7.10;;;1.60;99.90;;;;;;5092854;28;20212;-55
2023/04/06 05:45:49;;;;;;;11.03;7.17;;;1.80;99.90;;;;;;5093126;28;20234;-55
2023/04/06 05:48:16;;;;;;;8.87;5.93;;;2.00;99.90;;;;;;5092910;28;20236;-55
2023/04/06 05:50:42;;;;;;;8.77;5.63;;;2.80;99.90;;;;;;5093384;28;20211;-55
2023/04/06 05:53:09;;;;;;;6.67;5.43;;;4.10;99.90;;;;;;5093041;28;20230;-55
2023/04/06 05:55:36;;;;;;;12.13;6.43;;;5.50;99.90;;;;;;5092883;28;20231;-57
2023/04/06 05:58:04;;;;;;;10.20;5.90;;;6.70;97.40;;;;;;5092148;28;20661;-56
2023/04/06 06:00:31;;;;;;;9.27;5.63;;;7.90;95.70;;;;;;5092885;28;20228;-56
2023/04/06 06:02:57;;;;;;;6.37;5.77;;;8.90;94.20;;;;;;5092696;28;20200;-56
2023/04/06 06:05:24;;;;;;;7.07;5.30;;;9.80;91.90;;;;;;5092238;28;20215;-56
2023/04/06 06:07:51;;;;;;;8.67;5.20;;;10.30;90.10;;;;;;5092008;28;20235;-57
2023/04/06 06:10:18;;;;;;;7.03;5.30;;;10.70;88.70;;;;;;5092183;28;20211;-57
2023/04/06 06:12:44;;;;;;;6.93;5.40;;;11.20;86.70;;;;;;5092823;28;20235;-57
2023/04/06 06:15:13;;;;;;;7.60;5.23;;;11.60;84.80;;;;;;5092585;28;20208;-57
2023/04/06 06:17:40;;;;;;;6.20;5.60;;;12.10;82.90;;;;;;5092119;28;20727;-58
2023/04/06 06:20:08;;;;;;;11.13;5.37;;;12.60;81.30;;;;;;5092816;28;20645;-59
2023/04/06 06:22:35;;;;;;;8.03;5.43;;;13.20;80.70;;;;;;5092255;28;20204;-58
2023/04/06 06:25:01;;;;;;;7.40;5.30;;;14.10;77.00;;;;;;5092175;28;20211;-58
2023/04/06 06:27:29;;;;;;;9.57;5.53;;;14.90;72.40;;;;;;5091634;28;20240;-57
2023/04/06 06:29:55;;;;;;;6.30;5.07;;;15.30;70.90;;;;;;5092517;28;20196;-58
2023/04/06 06:32:23;;;;;;;7.00;5.00;;;15.50;69.80;;;;;;5092080;28;20793;-58
2023/04/06 06:34:50;;;;;;;8.30;5.70;;;15.70;68.30;;;;;;5092039;28;20204;-57
2023/04/06 06:37:17;;;;;;;8.53;5.37;;;15.90;66.60;;;;;;5091902;28;20227;-58
2023/04/06 06:39:43;;;;;;;7.27;5.27;;;16.00;66.00;;;;;;5094698;28;20269;-58
2023/04/06 06:42:10;;;;;;;7.63;5.90;;;15.70;66.00;;;;;;5096218;28;20683;-57
2023/04/06 06:44:37;;;;;;;10.00;5.77;;;15.20;66.50;;;;;;5096007;28;20208;-57
2023/04/06 06:47:04;;;;;;;8.17;5.30;;;15.00;66.70;;;;;;5095876;28;20255;-57
2023/04/06 06:49:32;;;;;;;6.60;5.23;;;14.60;66.30;;;;;;5096092;28;20636;-57
2023/04/06 06:51:58;;;;;;;7.43;5.50;;;14.40;67.20;;;;;;5096236;28;20676;-58
2023/04/06 06:54:25;;;;;;;8.37;6.20;;;14.40;66.40;;;;;;5096122;28;20208;-58
2023/04/06 06:56:52;;;;;;;9.03;5.63;;;14.20;67.40;;;;;;5095882;28;20228;-58
2023/04/06 06:59:18;;;;;;;8.23;5.70;;;14.40;67.20;;;;;;5095709;28;20215;-57
2023/04/06 07:01:45;;;;;;;7.50;5.43;;;14.50;67.00;;;;;;5096036;28;20281;-58
2023/04/06 07:04:12;;;;;;;7.13;5.43;;;14.70;66.20;;;;;;5096007;28;20253;-58
2023/04/06 07:06:40;;;;;;;6.20;5.27;;;14.90;66.20;;;;;;5095632;28;20204;-57
2023/04/06 07:09:06;;;;;;;8.80;5.10;;;15.40;64.70;;;;;;5095519;28;20196;-57
2023/04/06 07:11:33;;;;;;;8.27;5.33;;;15.90;63.50;;;;;;5096074;28;20583;-58
2023/04/06 07:14:00;;;;;;;10.63;7.47;;;16.30;62.00;;;;;;5096482;28;20208;-60
2023/04/06 07:16:27;;;;;;;6.82;5.53;;;16.80;61.00;;;;;;5096243;28;20230;-62
2023/04/06 07:18:53;;;;;;;7.93;6.05;;;17.10;60.70;;;;;;5096844;28;20208;-59
2023/04/06 07:21:20;;;;;;;7.72;5.88;;;17.80;59.90;;;;;;5097065;28;20687;-61
2023/04/06 07:23:50;;;;;;;7.72;6.15;;;18.40;59.10;;;;;;5097329;28;20636;-60
2023/04/06 07:26:17;;;;;;;9.40;5.90;;;19.20;58.50;;;;;;5097819;28;20200;-61
2023/04/06 07:28:44;;;;;;;6.43;5.20;;;19.50;55.80;;;;;;5097440;28;20239;-59
2023/04/06 07:31:10;;;;;;;7.07;5.63;;;19.40;55.40;;;;;;5096266;28;20200;-60
2023/04/06 07:33:37;;;;;;;9.68;6.38;;;19.40;55.30;;;;;;5096281;28;20637;-59
2023/04/06 07:36:05;;;;;;;7.28;5.53;;;19.80;55.20;;;;;;5097201;28;20653;-58
2023/04/06 07:38:31;;;;;;;8.43;6.05;;;20.40;53.80;;;;;;5096590;28;20844;-59
2023/04/06 07:41:00;;;;;;;7.55;5.82;;;20.90;52.80;;;;;;5096637;28;20227;-58
2023/04/06 07:43:27;;;;;;;12.13;6.13;;;21.50;51.90;;;;;;5096078;28;20247;-60
2023/04/06 07:45:55;;;;;;;8.00;5.85;;;22.00;51.60;;;;;;5096067;28;20218;-58
2023/04/06 07:48:22;;;;;;;6.40;5.53;;;22.40;50.10;;;;;;5095357;28;20270;-58
2023/04/06 07:50:48;;;;;;;5.63;5.03;;;22.90;48.30;;;;;;5094950;28;20695;-58
2023/04/06 07:53:15;;;;;;;8.52;5.47;;;23.40;47.50;;;;;;5095715;28;20211;-59
2023/04/06 07:55:42;;;;;;;5.82;5.20;;;23.50;46.80;;;;;;5095882;28;20212;-59
2023/04/06 07:58:10;;;;;;;6.88;6.18;;;23.50;46.30;;;;;;5095347;28;20220;-59
2023/04/06 08:00:37;;;;;;;8.15;5.80;;;23.00;46.70;;;;;;5095156;28;20593;-59
2023/04/06 08:03:04;;;;;;;6.30;5.70;;;23.00;46.70;;;;;;5095193;28;20734;-60
2023/04/06 08:05:31;;;;;;;7.47;5.93;;;23.10;46.30;;;;;;5095007;28;20211;-61
2023/04/06 08:07:58;;;;;;;8.95;6.00;;;23.30;45.20;;;;;;5094353;28;20231;-60
2023/04/06 08:10:24;;;;;;;7.43;6.50;;;22.80;45.50;;;;;;5094613;28;20201;-60
2023/04/06 08:12:53;;;;;;;8.45;6.18;;;21.90;46.20;;;;;;5094616;28;20211;-59
2023/04/06 08:15:21;;;;;;;8.90;6.50;;;20.70;47.20;;;;;;5094563;28;20212;-59
2023/04/06 08:17:47;;;;;;;10.57;6.15;;;19.20;49.00;;;;;;5094122;28;20239;-59
2023/04/06 08:20:14;;;;;;;7.95;6.47;;;17.80;51.00;;;;;;5094852;28;20236;-60
2023/04/06 08:22:41;;;;;;;10.05;6.90;;;16.60;52.60;;;;;;5094623;28;20208;-60
2023/04/06 08:25:08;;;;;;;7.18;6.22;;;15.60;53.80;;;;;;5094536;28;20228;-59
2023/04/06 08:27:35;;;;;;;7.57;5.90;;;14.90;55.20;;;;;;5094307;28;20235;-59
2023/04/06 08:30:02;;;;;;;9.10;6.73;;;14.40;56.60;;;;;;5094502;28;20207;-60
2023/04/06 08:32:30;;;;;;;8.40;7.00;;;14.10;57.50;;;;;;5094777;28;20197;-60
2023/04/06 08:34:57;;;;;;;8.17;7.13;;;13.90;57.20;;;;;;5094748;28;20215;-60
2023/04/06 08:37:24;;;;;;;7.67;6.57;;;13.50;56.80;;;;;;5094325;28;20228;-59
2023/04/06 08:39:51;;;;;;;9.43;7.30;;;13.00;58.30;;;;;;5094008;28;20602;-59
2023/04/06 08:42:21;;;;;;;7.67;6.30;;;13.00;58.80;;;;;;5094119;28;20211;-59
2023/04/06 08:44:49;;;;;;;8.93;7.07;;;13.00;58.50;;;;;;5093740;28;20249;-60
2023/04/06 08:47:16;;;;;;;9.53;7.00;;;13.00;60.90;;;;;;5093562;28;20278;-60
2023/04/06 08:49:46;;;;;;;10.40;6.70;;;13.00;60.90;;;;;;5094024;28;20219;-60
2023/04/06 08:52:14;;;;;;;12.43;8.03;;;13.00;60.30;;;;;;5093901;28;20208;-60
2023/04/06 08:54:41;;;;;;;10.43;7.57;;;13.00;60.30;;;;;;5093789;28;20291;-60
2023/04/06 08:57:08;;;;;;;11.80;7.10;;;13.00;60.30;;;;;;5093372;28;20746;-60
2023/04/06 08:59:36;;;;;;;8.90;7.00;;;12.90;60.20;;;;;;5093330;28;20227;-60
2023/04/06 09:02:05;;;;;;;8.43;6.97;;;12.90;60.10;;;;;;5092698;28;20204;-60
2023/04/06 09:04:33;;;;;;;10.00;7.23;;;12.90;60.00;;;;;;5093505;28;20253;-60
2023/04/06 09:07:01;;;;;;;13.73;7.87;;;13.00;60.10;;;;;;5093286;28;20738;-61
2023/04/06 09:09:28;;;;;;;9.03;6.97;;;13.00;60.20;;;;;;5093329;28;20204;-60
2023/04/06 09:11:55;;;;;;;11.37;8.10;;;12.90;60.50;;;;;;5093265;28;20203;-60
2023/04/06 09:14:35;;;;;;;14.23;7.50;;;12.90;60.30;;;;;;5093504;28;20207;-59
2023/04/06 09:17:02;;;;;;;11.20;7.13;;;12.80;60.40;;;;;;5093761;28;20777;-59
2023/04/06 09:19:29;;;;;;;8.73;6.77;;;12.70;60.10;;;;;;5093329;28;20212;-59
2023/04/06 09:22:04;;;;;;;11.90;8.07;;;12.70;60.00;;;;;;5093713;28;20268;-59
2023/04/06 09:24:41;;;;;;;10.17;7.53;;;12.90;60.20;;;;;;5093009;28;20218;-59
2023/04/06 09:27:08;;;;;;;8.67;7.40;;;13.00;59.60;;;;;;5093182;28;20228;-59
2023/04/06 09:29:36;;;;;;;9.60;7.03;;;13.00;59.10;;;;;;5093063;28;20261;-60
2023/04/06 09:32:04;;;;;;;8.50;7.03;;;13.10;58.50;;;;;;5093252;28;20273;-59
2023/04/06 09:34:31;;;;;;;11.00;7.10;;;13.20;58.90;;;;;;5092799;28;20200;-59
2023/04/06 09:36:58;;;;;;;8.67;6.60;;;13.20;58.50;;;;;;5092809;28;20315;-59
2023/04/06 09:39:26;;;;;;;10.07;6.80;;;13.40;58.20;;;;;;5092765;28;20204;-59
2023/04/06 09:41:55;;;;;;;8.37;6.30;;;13.50;57.40;;;;;;5093058;28;20204;-59
2023/04/06 09:44:23;;;;;;;8.93;6.70;;;13.60;57.00;;;;;;5092848;28;20200;-59
2023/04/06 09:46:54;;;;;;;11.40;7.67;;;13.70;57.50;;;;;;5092707;28;20300;-59
2023/04/06 09:49:21;;;;;;;8.60;6.63;;;13.70;57.20;;;;;;5093097;28;20656;-59
2023/04/06 09:51:56;;;;;;;7.27;5.93;;;13.60;57.50;;;;;;5092715;28;20196;-59
2023/04/06 09:54:24;;;;;;;7.93;6.40;;;13.80;57.30;;;;;;5092594;28;20571;-60
2023/04/06 09:57:07;;;;;;;10.47;7.20;;;13.90;56.70;;;;;;5092403;28;20712;-60
2023/04/06 09:59:43;;;;;;;8.03;6.50;;;14.00;55.90;;;;;;5092322;28;20204;-59
2023/04/06 10:02:19;;;;;;;7.93;6.50;;;14.10;55.40;;;;;;5092512;28;20208;-60
2023/04/06 10:04:57;;;;;;;9.43;6.73;;;14.20;54.30;;;;;;5092656;28;20208;-60
2023/04/06 10:07:24;;;;;;;8.73;6.57;;;14.00;54.90;;;;;;5092118;28;20265;-59
2023/04/06 10:09:52;;;;;;;10.23;6.83;;;13.70;54.70;;;;;;5092451;28;20204;-59
2023/04/06 10:12:21;;;;;;;9.50;7.27;;;13.50;56.00;;;;;;5092471;28;20200;-59
2023/04/06 10:14:49;;;;;;;9.00;7.30;;;13.40;55.90;;;;;;5092534;28;20214;-60
2023/04/06 10:17:15;;;;;;;11.37;7.37;;;13.40;56.00;;;;;;5092715;28;20239;-59
2023/04/06 10:19:52;;;;;;;9.10;6.60;;;13.50;56.20;;;;;;5092223;28;20215;-59
2023/04/06 10:22:27;;;;;;;7.73;6.63;;;13.80;55.60;;;;;;5092367;28;20211;-60
2023/04/06 10:24:54;;;;;;;9.50;6.00;;;14.00;55.80;;;;;;5092296;28;20667;-59
2023/04/06 10:27:30;;;;;;;13.43;8.30;;;14.20;55.80;;;;;;5092034;28;20277;-59
2023/04/06 10:30:03;;;;;;;8.87;6.70;;;14.40;55.60;;;;;;5092632;28;20204;-59
2023/04/06 10:32:35;;;;;;;8.03;6.80;;;14.50;55.10;;;;;;5092458;28;20207;-60
2023/04/06 10:35:10;;;;;;;8.57;6.40;;;14.60;55.60;;;;;;5092404;28;20273;-60
2023/04/06 10:37:52;;;;;;;8.77;6.57;;;14.80;55.10;;;;;;5092000;28;20227;-60
2023/04/06 10:40:26;;;;;;;7.40;6.03;;;14.60;53.90;;;;;;5092321;28;20231;-60
2023/04/06 10:42:55;;;;;;;7.30;6.00;;;14.40;54.60;;;;;;5092384;28;20211;-60
2023/04/06 10:45:23;;;;;;;8.60;6.27;;;14.30;54.10;;;;;;5092555;28;20662;-60
2023/04/06 10:47:52;;;;;;;10.13;6.57;;;14.20;53.80;;;;;;5092214;28;20311;-58
2023/04/06 10:50:20;;;;;;;8.87;6.27;;;14.10;53.90;;;;;;5068903;28;20732;-58
2023/04/06 10:52:48;;;;;;;10.33;5.77;;;14.00;53.60;;;;;;5080081;28;20200;-58
2023/04/06 10:55:16;;;;;;;7.27;6.00;;;14.10;53.80;;;;;;5092243;28;20204;-58
2023/04/06 10:57:43;;;;;;;9.60;6.63;;;14.30;53.70;;;;;;5092421;28;20239;-58
2023/04/06 11:00:13;;;;;;;8.17;6.30;;;14.50;54.90;;;;;;5092368;28;20583;-59
2023/04/06 11:02:40;;;;;;;9.00;5.77;;;14.60;54.80;;;;;;5092911;28;20236;-58
2023/04/06 11:05:08;;;;;;;11.50;6.50;;;14.60;53.90;;;;;;5092533;28;20212;-58
2023/04/06 11:07:35;;;;;;;6.43;5.23;;;14.50;54.00;;;;;;5092210;28;20228;-58
2023/04/06 11:10:02;;;;;;;8.23;6.30;;;14.30;53.80;;;;;;5093019;28;20744;-59
2023/04/06 11:12:30;;;;;;;7.33;6.00;;;14.20;54.70;;;;;;5093539;28;20606;-57
2023/04/06 11:15:02;;;;;;;8.27;6.07;;;14.40;54.70;;;;;;5092883;28;20209;-58
2023/04/06 11:17:31;;;;;;;8.03;6.10;;;14.60;54.40;;;;;;5092231;28;20273;-61
2023/04/06 11:19:59;;;;;;;6.67;5.13;;;14.80;54.30;;;;;;5092080;28;20208;-60
2023/04/06 11:22:26;;;;;;;4.90;4.43;;;15.10;52.40;;;;;;5092601;28;20227;-60
2023/04/06 11:24:53;;;;;;;6.07;5.17;;;15.30;50.30;;;;;;5093541;28;20340;-62
2023/04/06 11:27:20;;;;;;;6.90;4.90;;;15.50;50.00;;;;;;5095784;28;20232;-61
2023/04/06 11:29:48;;;;;;;6.93;4.83;;;15.60;50.00;;;;;;5096808;28;20207;-60
2023/04/06 11:32:22;;;;;;;7.80;5.00;;;15.70;50.00;;;;;;5095936;28;20204;-60
2023/04/06 11:34:50;;;;;;;5.13;4.57;;;15.90;49.40;;;;;;5095740;28;20210;-61
2023/04/06 11:37:17;;;;;;;7.13;5.10;;;15.90;48.70;;;;;;5095326;28;20738;-61
2023/04/06 11:39:48;;;;;;;7.53;4.73;;;16.00;48.90;;;;;;5094955;28;20211;-60
2023/04/06 11:42:22;;;;;;;7.03;5.50;;;16.10;49.00;;;;;;5095712;28;20239;-60
2023/04/06 11:44:52;;;;;;;7.07;5.43;;;16.10;48.70;;;;;;5095854;28;20252;-64
2023/04/06 11:47:20;;;;;;;6.97;5.20;;;16.10;49.20;;;;;;5095849;28;20258;-61
2023/04/06 11:49:47;;;;;;;6.87;5.10;;;16.10;48.50;;;;;;5095425;28;20204;-57
2023/04/06 11:52:20;;;;;;;6.97;5.83;;;15.90;48.90;;;;;;5096016;28;20614;-57
2023/04/06 11:54:47;;;;;;;6.73;5.20;;;15.90;49.40;;;;;;5096052;28;20200;-57
2023/04/06 11:57:14;;;;;;;6.57;5.53;;;15.70;49.30;;;;;;5095503;28;20220;-56
2023/04/06 11:59:41;;;;;;;5.40;4.87;;;15.70;49.20;;;;;;5095522;28;20303;-56
2023/04/06 12:02:08;;;;;;;5.87;4.43;;;15.40;49.00;;;;;;5095215;28;20232;-56
2023/04/06 12:04:35;;;;;;;7.20;5.20;;;15.20;49.60;;;;;;5095307;28;20216;-56
2023/04/06 12:07:02;;;;;;;7.17;5.03;;;15.20;49.80;;;;;;5095371;28;20246;-56
2023/04/06 12:09:30;;;;;;;6.27;4.77;;;15.20;49.30;;;;;;5095253;28;20200;-56
2023/04/06 12:11:57;;;;;;;7.27;5.47;;;15.20;49.30;;;;;;5094976;28;20208;-56
2023/04/06 12:14:25;;;;;;;6.97;5.90;;;15.10;50.20;;;;;;5094969;28;20238;-56
2023/04/06 12:16:51;;;;;;;8.33;5.30;;;15.20;51.30;;;;;;5094978;28;20224;-56
2023/04/06 12:19:18;;;;;;;6.77;5.20;;;15.20;51.10;;;;;;5094942;28;20204;-56
2023/04/06 12:21:45;;;;;;;8.37;5.47;;;15.10;49.90;;;;;;5094669;28;20228;-55
2023/04/06 12:24:12;;;;;;;5.67;4.77;;;15.20;50.10;;;;;;5094860;28;20604;-55
2023/04/06 12:26:41;;;;;;;6.23;4.43;;;15.30;49.00;;;;;;5094601;28;20748;-55
2023/04/06 12:29:08;;;;;;;7.67;4.77;;;15.30;48.80;;;;;;5094412;28;20235;-55
2023/04/06 12:31:36;;;;;;;8.10;5.03;;;15.50;48.50;;;;;;5094403;28;20676;-57
2023/04/06 12:34:04;;;;;;;7.20;5.13;;;15.60;48.80;;;;;;5094418;28;20204;-56
2023/04/06 12:36:31;;;;;;;6.73;5.37;;;15.90;48.90;;;;;;5094536;28;20260;-57
2023/04/06 12:38:58;;;;;;;6.17;4.90;;;16.10;48.30;;;;;;5094383;28;20211;-56
2023/04/06 12:41:25;;;;;;;6.60;4.73;;;16.30;48.40;;;;;;5094173;28;20274;-56
2023/04/06 12:43:54;;;;;;;8.10;5.77;;;16.50;47.80;;;;;;5094466;28;20208;-56
2023/04/06 12:46:21;;;;;;;7.90;5.32;;;16.70;47.20;;;;;;5094097;28;20212;-55
2023/04/06 12:48:48;;;;;;;7.90;5.15;;;16.70;47.00;;;;;;5094064;28;20259;-56
2023/04/06 12:51:15;;;;;;;5.40;4.63;;;16.70;46.10;;;;;;5094314;28;20238;-56